createdAt,value
2022-11-18T00:03:11.701Z,4.74
2022-11-18T00:08:16.860Z,4.74
2022-11-18T00:13:36.783Z,4.74
2022-11-18T00:18:42.647Z,4.74
2022-11-18T00:23:47.707Z,4.81
2022-11-18T00:28:55.210Z,4.70
2022-11-18T00:34:00.610Z,4.72
2022-11-18T00:39:07.716Z,4.70
2022-11-18T00:44:15.401Z,4.70
2022-11-18T00:49:21.052Z,4.74
2022-11-18T00:54:26.577Z,4.69
2022-11-18T00:59:34.241Z,4.73
2022-11-18T01:04:39.197Z,4.73
2022-11-18T01:09:44.221Z,4.69
2022-11-18T01:14:51.971Z,4.77
2022-11-18T01:19:57.013Z,4.71
2022-11-18T01:25:01.954Z,4.73
2022-11-18T01:30:11.427Z,4.68
2022-11-18T01:35:17.827Z,4.64
2022-11-18T01:40:24.522Z,4.73
2022-11-18T01:45:36.717Z,4.85
2022-11-18T01:50:47.784Z,4.74
2022-11-18T01:55:57.767Z,4.80
2022-11-18T02:01:06.478Z,4.65
2022-11-18T02:06:14.079Z,4.67
2022-11-18T02:11:31.830Z,4.70
2022-11-18T02:16:51.125Z,4.65
2022-11-18T02:22:11.157Z,4.64
2022-11-18T02:27:43.512Z,4.70
2022-11-18T02:32:59.378Z,4.67
2022-11-18T02:38:10.276Z,4.61
2022-11-18T02:43:21.380Z,4.33
2022-11-18T02:48:32.951Z,4.36
2022-11-18T02:53:43.534Z,4.31
2022-11-18T02:58:48.497Z,4.42
2022-11-18T03:03:57.125Z,4.43
2022-11-18T03:09:13.289Z,4.46
2022-11-18T03:14:26.230Z,4.33
2022-11-18T03:19:48.875Z,4.35
2022-11-18T03:25:02.908Z,4.28
2022-11-18T03:30:12.401Z,4.35
2022-11-18T03:35:24.918Z,4.16
2022-11-18T03:40:33.813Z,4.20
2022-11-18T03:45:44.768Z,3.99
2022-11-18T03:51:01.118Z,3.90
2022-11-18T03:56:17.214Z,3.76
2022-11-18T04:01:28.508Z,3.63
2022-11-18T04:06:41.478Z,3.45
2022-11-18T04:12:06.450Z,3.53
2022-11-18T04:17:13.585Z,3.38
2022-11-18T04:22:25.143Z,3.26
2022-11-18T04:27:30.019Z,3.39
2022-11-18T04:32:35.139Z,3.31
2022-11-18T04:37:42.825Z,3.49
2022-11-18T04:42:48.048Z,3.36
2022-11-18T04:47:52.900Z,3.25
2022-11-18T04:53:00.678Z,3.40
2022-11-18T04:58:05.753Z,3.28
2022-11-18T05:03:10.869Z,3.28
2022-11-18T05:08:18.492Z,3.17
2022-11-18T05:13:23.868Z,3.10
2022-11-18T05:18:30.856Z,3.18
2022-11-18T05:23:40.180Z,3.18
2022-11-18T05:28:45.469Z,3.19
2022-11-18T05:33:50.639Z,3.24
2022-11-18T05:39:01.080Z,3.04
2022-11-18T05:44:08.691Z,3.13
2022-11-18T05:49:13.770Z,3.08
2022-11-18T05:54:23.621Z,2.72
2022-11-18T05:59:30.094Z,2.85
2022-11-18T06:04:40.911Z,2.98
2022-11-18T06:09:53.088Z,3.00
2022-11-18T06:15:04.215Z,2.95
2022-11-18T06:20:13.258Z,2.95
2022-11-18T06:25:21.275Z,3.07
2022-11-18T06:30:28.958Z,2.92
2022-11-18T06:35:33.907Z,2.76
2022-11-18T06:40:55.393Z,2.99
2022-11-18T06:46:17.029Z,2.69
2022-11-18T06:51:22.473Z,2.68
2022-11-18T06:56:30.171Z,2.73
2022-11-18T07:01:38.616Z,2.60
2022-11-18T07:06:49.048Z,2.55
2022-11-18T07:11:57.002Z,2.44
2022-11-18T07:17:05.532Z,2.34
2022-11-18T07:22:10.688Z,2.34
2022-11-18T07:27:18.523Z,2.49
2022-11-18T07:32:24.795Z,2.25
2022-11-18T07:37:30.479Z,2.13
2022-11-18T07:42:42.901Z,1.99
2022-11-18T07:48:00.958Z,2.23
2022-11-18T07:53:06.197Z,2.13
2022-11-18T07:58:15.813Z,2.02
2022-11-18T08:03:22.747Z,1.89
2022-11-18T08:08:27.947Z,1.87
2022-11-18T08:13:36.241Z,1.98
2022-11-18T08:18:44.047Z,1.70
2022-11-18T08:23:54.657Z,1.87
2022-11-18T08:29:04.646Z,1.62
2022-11-18T08:34:15.123Z,1.63
2022-11-18T08:39:20.469Z,1.49
2022-11-18T08:44:33.827Z,1.57
2022-11-18T08:49:38.700Z,1.60
2022-11-18T08:54:43.765Z,1.63
2022-11-18T08:59:51.242Z,1.69
2022-11-18T09:04:56.999Z,1.40
2022-11-18T09:10:04.521Z,1.43
2022-11-18T09:15:17.480Z,0.93
2022-11-18T09:20:23.043Z,0.76
2022-11-18T09:25:28.337Z,0.82
2022-11-18T09:30:36.603Z,0.88
2022-11-18T09:35:45.265Z,0.68
2022-11-18T09:41:02.783Z,0.64
2022-11-18T09:46:26.910Z,0.64
2022-11-18T09:51:38.528Z,0.72
2022-11-18T09:56:48.365Z,0.56
2022-11-18T10:01:59.526Z,0.96
2022-11-18T10:07:14.179Z,0.50
2022-11-18T10:12:28.521Z,0.81
2022-11-18T10:17:52.148Z,0.59
2022-11-18T10:23:01.475Z,0.62
2022-11-18T10:28:22.505Z,0.31
2022-11-18T10:33:32.715Z,0.44
2022-11-18T10:38:45.547Z,0.57
2022-11-18T10:43:55.616Z,0.43
2022-11-18T10:49:17.420Z,0.71
2022-11-18T10:54:26.349Z,0.69
2022-11-18T10:59:34.452Z,0.50
2022-11-18T11:04:43.529Z,0.84
2022-11-18T11:10:03.445Z,0.36
2022-11-18T11:15:14.009Z,0.49
2022-11-18T11:20:24.581Z,0.43
2022-11-18T11:31:21.347Z,0.20
2022-11-18T11:36:43.249Z,0.17
2022-11-18T11:42:00.017Z,0.17
2022-11-18T11:47:40.207Z,0.25
2022-11-18T11:52:59.538Z,0.41
2022-11-18T11:58:45.053Z,0.52
2022-11-18T12:03:56.782Z,0.48
2022-11-18T12:09:13.314Z,0.27
2022-11-18T12:14:32.926Z,0.22
2022-11-18T12:19:42.087Z,-0.03
2022-11-18T12:24:51.996Z,0.17
2022-11-18T12:30:01.607Z,0.16
2022-11-18T12:35:25.690Z,0.17
2022-11-18T12:40:47.205Z,-0.12
2022-11-18T12:46:00.628Z,-0.04
2022-11-18T12:51:14.692Z,-0.10
2022-11-18T12:56:27.977Z,-0.12
2022-11-18T13:01:35.504Z,-0.09
2022-11-18T13:06:45.077Z,-0.45
2022-11-18T13:11:57.636Z,-0.30
2022-11-18T13:17:22.819Z,-0.10
2022-11-18T13:22:41.701Z,-0.24
2022-11-18T13:27:55.711Z,-0.40
2022-11-18T13:33:02.577Z,-0.51
2022-11-18T13:38:10.250Z,-0.53
2022-11-18T13:43:28.967Z,-0.33
2022-11-18T13:48:39.022Z,-0.59
2022-11-18T13:53:47.753Z,-0.70
2022-11-18T13:59:18.037Z,-0.54
2022-11-18T14:04:26.362Z,-0.81
2022-11-18T14:09:34.569Z,-0.74
2022-11-18T14:14:45.405Z,-0.55
2022-11-18T14:19:52.736Z,-0.61
2022-11-18T14:25:00.323Z,-0.52
2022-11-18T14:30:32.824Z,-0.53
2022-11-18T14:35:38.181Z,-0.61
2022-11-18T14:40:46.753Z,-0.78
2022-11-18T14:45:59.906Z,-0.66
2022-11-18T14:51:05.152Z,-0.57
2022-11-18T14:56:18.316Z,-0.59
2022-11-18T15:01:30.479Z,-0.61
2022-11-18T15:06:36.433Z,-0.59
2022-11-18T15:11:42.026Z,-0.66
2022-11-18T15:16:52.090Z,-0.74
2022-11-18T15:21:56.989Z,-0.75
2022-11-18T15:27:06.748Z,-0.73
2022-11-18T15:32:16.222Z,-0.77
2022-11-18T15:37:21.276Z,-0.60
2022-11-18T15:42:26.262Z,-0.81
2022-11-18T15:47:33.811Z,-0.94
2022-11-18T15:52:38.997Z,-0.75
2022-11-18T15:57:43.997Z,-0.64
2022-11-18T16:02:54.737Z,-0.79
2022-11-18T16:07:59.790Z,-0.90
2022-11-18T16:13:04.891Z,-0.86
2022-11-18T16:18:13.083Z,-0.95
2022-11-18T16:23:18.074Z,-1.11
2022-11-18T16:28:23.022Z,-0.95
2022-11-18T16:33:30.719Z,-0.95
2022-11-18T16:38:43.607Z,-1.02
2022-11-18T16:43:51.893Z,-0.85
2022-11-18T16:49:00.889Z,-0.87
2022-11-18T16:54:07.867Z,-1.03
2022-11-18T16:59:16.761Z,-1.04
2022-11-18T17:04:25.616Z,-1.45
2022-11-18T17:09:34.064Z,-1.25
2022-11-18T17:14:40.524Z,-1.40
2022-11-18T17:19:51.730Z,-1.21
2022-11-18T17:24:59.729Z,-1.33
2022-11-18T17:30:10.282Z,-1.11
2022-11-18T17:35:21.272Z,-1.29
2022-11-18T17:40:26.269Z,-1.09
2022-11-18T17:45:31.427Z,-1.06
2022-11-18T17:50:39.031Z,-1.30
2022-11-18T17:55:44.273Z,-1.06
2022-11-18T18:00:49.192Z,-1.25
2022-11-18T18:06:04.216Z,-1.17
2022-11-18T18:11:15.174Z,-1.15
2022-11-18T18:16:20.632Z,-1.15
2022-11-18T18:21:28.686Z,-1.13
2022-11-18T18:26:34.446Z,-1.11
2022-11-18T18:31:39.779Z,-1.11
2022-11-18T18:36:49.701Z,-1.21
2022-11-18T18:41:54.779Z,-1.18
2022-11-18T18:46:59.803Z,-1.11
2022-11-18T18:52:10.081Z,-1.22
2022-11-18T18:57:17.953Z,-1.25
2022-11-18T19:02:22.961Z,-1.28
2022-11-18T19:07:31.511Z,-1.28
2022-11-18T19:12:51.737Z,-1.33
2022-11-18T19:17:56.826Z,-1.38
2022-11-18T19:23:10.119Z,-1.44
2022-11-18T19:28:15.790Z,-1.38
2022-11-18T19:33:20.837Z,-1.47
2022-11-18T19:38:28.563Z,-1.43
2022-11-18T19:43:34.421Z,-1.39
2022-11-18T19:48:39.423Z,-1.39
2022-11-18T19:53:46.948Z,-1.45
2022-11-18T19:58:54.870Z,-1.18
2022-11-18T20:04:01.907Z,-1.29
2022-11-18T20:09:16.731Z,-1.26
2022-11-18T20:14:25.539Z,-1.33
2022-11-18T20:19:30.955Z,-1.36
2022-11-18T20:24:38.766Z,-1.09
2022-11-18T20:29:46.214Z,-1.09
2022-11-18T20:34:51.451Z,-1.28
2022-11-18T20:39:59.167Z,-1.22
2022-11-18T20:45:04.430Z,-1.14
2022-11-18T20:50:10.835Z,-1.12
2022-11-18T20:55:18.657Z,-1.22
2022-11-18T21:00:23.762Z,-1.15
2022-11-18T21:05:31.144Z,-1.09
2022-11-18T21:10:39.527Z,-1.13
2022-11-18T21:15:48.162Z,-1.16
2022-11-18T21:21:05.680Z,-1.12
2022-11-18T21:26:15.681Z,-1.26
2022-11-18T21:31:23.180Z,-1.21
2022-11-18T21:36:30.561Z,-1.17
2022-11-18T21:41:38.728Z,-1.36
2022-11-18T21:46:47.411Z,-1.30
2022-11-18T21:51:52.273Z,-1.47
2022-11-18T21:56:59.823Z,-1.53
2022-11-18T22:02:04.962Z,-1.46
2022-11-18T22:07:10.068Z,-1.43
2022-11-18T22:12:17.764Z,-1.29
2022-11-18T22:17:22.725Z,-1.44
2022-11-18T22:22:27.665Z,-1.69
2022-11-18T22:27:36.291Z,-1.86
2022-11-18T22:32:43.536Z,-1.90
2022-11-18T22:37:48.397Z,-1.96
2022-11-18T22:42:57.380Z,-1.66
2022-11-18T22:48:03.371Z,-1.62
2022-11-18T22:53:08.251Z,-1.41
2022-11-18T22:58:15.878Z,-1.66
2022-11-18T23:03:20.884Z,-1.56
2022-11-18T23:08:27.106Z,-1.37
2022-11-18T23:13:47.531Z,-1.36
2022-11-18T23:18:53.032Z,-1.48
2022-11-18T23:23:57.983Z,-1.86
2022-11-18T23:29:05.595Z,-1.97
2022-11-18T23:34:10.830Z,-1.95
2022-11-18T23:39:16.121Z,-2.04
2022-11-18T23:44:44.301Z,-1.99
2022-11-18T23:49:49.701Z,-1.93
2022-11-18T23:54:54.853Z,-2.07
